Time;durP1;ratioP1;P1;durP2;ratioP2;P2;SDS_P1;SDS_P2;PMS_P1;PMS_P2;Temp;Humidity;BMP_temperature;BMP_pressure;BME280_temperature;BME280_humidity;BME280_pressure;Samples;Min_cycle;Max_cycle;Signal;HPM_P1;HPM_P2
2021/02/25 00:01:20;;;;;;;4.82;2.97;;;;;;;18.86;48.06;101679.66;;;;-55
2021/02/25 00:04:20;;;;;;;4.01;2.71;;;;;;;18.84;48.04;101679.84;;;;-54
2021/02/25 00:07:20;;;;;;;6.04;2.81;;;;;;;18.83;48.02;101683.73;;;;-49
2021/02/25 00:10:20;;;;;;;3.98;2.79;;;;;;;18.81;48.02;101683.18;;;;-55
2021/02/25 00:13:20;;;;;;;5.54;2.88;;;;;;;18.78;47.99;101684.47;;;;-54
2021/02/25 00:16:20;;;;;;;4.95;2.51;;;;;;;18.77;48.01;101683.60;;;;-52
2021/02/25 00:19:20;;;;;;;6.14;2.74;;;;;;;18.75;48.00;101687.77;;;;-50
2021/02/25 00:22:20;;;;;;;5.65;2.84;;;;;;;18.75;48.03;101691.18;;;;-49
2021/02/25 00:25:20;;;;;;;5.39;2.93;;;;;;;18.72;48.01;101688.59;;;;-55
2021/02/25 00:28:20;;;;;;;3.29;2.57;;;;;;;18.70;48.04;101689.34;;;;-52
2021/02/25 00:31:20;;;;;;;5.17;3.05;;;;;;;18.69;48.03;101691.50;;;;-51
2021/02/25 00:34:20;;;;;;;5.36;2.76;;;;;;;18.67;48.03;101694.69;;;;-51
2021/02/25 00:37:20;;;;;;;4.81;2.85;;;;;;;18.66;48.01;101695.08;;;;-52
2021/02/25 00:40:20;;;;;;;3.79;2.53;;;;;;;18.63;48.03;101691.16;;;;-54
2021/02/25 00:43:20;;;;;;;4.73;2.62;;;;;;;18.63;48.04;101697.39;;;;-52
2021/02/25 00:46:20;;;;;;;4.73;2.81;;;;;;;18.62;48.08;101699.98;;;;-51
2021/02/25 00:49:20;;;;;;;4.54;2.68;;;;;;;18.60;48.09;101696.34;;;;-54
2021/02/25 00:52:20;;;;;;;6.05;2.83;;;;;;;18.59;48.10;101698.34;;;;-54
2021/02/25 00:55:20;;;;;;;4.84;2.77;;;;;;;18.57;48.08;101702.20;;;;-55
2021/02/25 00:58:20;;;;;;;4.50;2.83;;;;;;;18.56;48.12;101703.70;;;;-55
2021/02/25 01:01:20;;;;;;;4.78;2.61;;;;;;;18.55;48.07;101702.14;;;;-52
2021/02/25 01:04:20;;;;;;;4.43;2.71;;;;;;;18.53;48.14;101702.25;;;;-51
2021/02/25 01:07:20;;;;;;;4.17;2.76;;;;;;;18.51;48.16;101697.84;;;;-52
2021/02/25 01:10:20;;;;;;;3.75;2.82;;;;;;;18.50;48.11;101693.70;;;;-50
2021/02/25 01:13:20;;;;;;;4.11;2.67;;;;;;;18.49;48.13;101693.23;;;;-54
2021/02/25 01:16:20;;;;;;;4.63;2.68;;;;;;;18.48;48.13;101693.16;;;;-51
2021/02/25 01:19:20;;;;;;;4.90;2.63;;;;;;;18.46;48.14;101693.58;;;;-50
2021/02/25 01:22:20;;;;;;;4.71;2.82;;;;;;;18.45;48.13;101683.53;;;;-50
2021/02/25 01:25:20;;;;;;;4.43;2.53;;;;;;;18.44;48.16;101688.32;;;;-50
2021/02/25 01:28:20;;;;;;;4.49;2.56;;;;;;;18.42;48.17;101688.91;;;;-50
2021/02/25 01:31:20;;;;;;;3.96;2.67;;;;;;;18.42;48.17;101689.47;;;;-50
2021/02/25 01:34:20;;;;;;;5.31;2.77;;;;;;;18.41;48.18;101687.14;;;;-50
2021/02/25 01:37:20;;;;;;;4.50;2.66;;;;;;;18.39;48.16;101689.64;;;;-49
2021/02/25 01:40:20;;;;;;;4.43;2.49;;;;;;;18.38;48.16;101692.44;;;;-55
2021/02/25 01:43:20;;;;;;;4.04;2.70;;;;;;;18.37;48.19;101688.27;;;;-51
2021/02/25 01:46:20;;;;;;;5.34;2.70;;;;;;;18.34;48.20;101685.04;;;;-54
2021/02/25 01:49:20;;;;;;;5.05;2.61;;;;;;;18.35;48.16;101685.86;;;;-55
2021/02/25 01:52:20;;;;;;;4.21;2.79;;;;;;;18.33;48.20;101680.52;;;;-50
2021/02/25 01:55:20;;;;;;;4.09;2.69;;;;;;;18.32;48.23;101677.87;;;;-50
2021/02/25 01:58:20;;;;;;;4.18;2.51;;;;;;;18.30;48.17;101674.52;;;;-51
2021/02/25 02:01:20;;;;;;;4.59;2.68;;;;;;;18.29;48.17;101672.70;;;;-55
2021/02/25 02:04:20;;;;;;;4.79;2.89;;;;;;;18.29;48.18;101672.84;;;;-54
2021/02/25 02:07:20;;;;;;;4.89;2.63;;;;;;;18.27;48.20;101674.41;;;;-54
2021/02/25 02:10:20;;;;;;;5.75;2.73;;;;;;;18.26;48.19;101673.34;;;;-52
2021/02/25 02:13:21;;;;;;;4.57;2.89;;;;;;;18.26;48.20;101670.87;;;;-52
2021/02/25 02:16:20;;;;;;;4.83;2.63;;;;;;;18.24;48.24;101664.81;;;;-52
2021/02/25 02:19:20;;;;;;;3.86;2.72;;;;;;;18.23;48.20;101663.34;;;;-54
2021/02/25 02:22:20;;;;;;;4.92;2.60;;;;;;;18.22;48.21;101665.76;;;;-55
2021/02/25 02:25:20;;;;;;;4.29;2.42;;;;;;;18.22;48.25;101664.02;;;;-54
2021/02/25 02:28:20;;;;;;;4.45;2.70;;;;;;;18.20;48.21;101663.02;;;;-54
2021/02/25 02:31:20;;;;;;;4.81;2.73;;;;;;;18.20;48.25;101662.73;;;;-55
2021/02/25 02:34:20;;;;;;;5.64;3.05;;;;;;;18.18;48.22;101661.33;;;;-55
2021/02/25 02:37:20;;;;;;;4.60;2.74;;;;;;;18.17;48.21;101662.27;;;;-55
2021/02/25 02:40:20;;;;;;;3.80;2.66;;;;;;;18.17;48.22;101663.23;;;;-55
2021/02/25 02:43:20;;;;;;;6.96;2.78;;;;;;;18.15;48.23;101659.84;;;;-55
2021/02/25 02:46:20;;;;;;;4.59;2.64;;;;;;;18.15;48.24;101657.64;;;;-55
2021/02/25 02:49:20;;;;;;;5.32;2.82;;;;;;;18.14;48.24;101659.58;;;;-52
2021/02/25 02:52:20;;;;;;;4.92;2.69;;;;;;;18.13;48.25;101653.20;;;;-52
2021/02/25 02:55:20;;;;;;;4.61;2.66;;;;;;;18.13;48.25;101652.16;;;;-52
2021/02/25 02:58:20;;;;;;;5.87;2.77;;;;;;;18.11;48.23;101652.41;;;;-54
2021/02/25 03:01:20;;;;;;;4.18;2.75;;;;;;;18.11;48.24;101655.33;;;;-52
2021/02/25 03:04:20;;;;;;;3.71;2.67;;;;;;;18.10;48.24;101660.43;;;;-52
2021/02/25 03:07:20;;;;;;;3.55;2.53;;;;;;;18.09;48.25;101659.65;;;;-52
2021/02/25 03:10:20;;;;;;;5.83;2.88;;;;;;;18.08;48.23;101652.98;;;;-52
2021/02/25 03:13:20;;;;;;;5.57;2.72;;;;;;;18.07;48.24;101656.70;;;;-52
2021/02/25 03:16:20;;;;;;;4.69;2.73;;;;;;;18.07;48.22;101650.90;;;;-51
2021/02/25 03:19:20;;;;;;;5.83;2.76;;;;;;;18.06;48.28;101655.34;;;;-54
2021/02/25 03:22:20;;;;;;;4.44;2.70;;;;;;;18.04;48.28;101652.53;;;;-54
2021/02/25 03:25:20;;;;;;;4.50;2.52;;;;;;;18.05;48.25;101655.30;;;;-52
2021/02/25 03:28:20;;;;;;;4.11;2.58;;;;;;;18.04;48.27;101656.91;;;;-52
2021/02/25 03:31:20;;;;;;;4.31;2.47;;;;;;;18.03;48.25;101660.52;;;;-51
2021/02/25 03:34:20;;;;;;;3.51;2.60;;;;;;;18.02;48.24;101665.52;;;;-51
2021/02/25 03:37:20;;;;;;;5.57;2.78;;;;;;;18.01;48.25;101664.13;;;;-52
2021/02/25 03:40:20;;;;;;;4.57;2.78;;;;;;;18.00;48.24;101663.18;;;;-52
2021/02/25 03:43:20;;;;;;;5.31;2.75;;;;;;;18.00;48.31;101673.08;;;;-50
2021/02/25 03:46:20;;;;;;;4.23;2.65;;;;;;;17.98;48.24;101669.86;;;;-50
2021/02/25 03:49:20;;;;;;;4.41;2.79;;;;;;;17.97;48.25;101670.81;;;;-50
2021/02/25 03:52:20;;;;;;;3.75;2.63;;;;;;;17.97;48.25;101674.51;;;;-52
2021/02/25 03:55:20;;;;;;;4.41;2.70;;;;;;;17.95;48.26;101670.80;;;;-52
2021/02/25 03:58:20;;;;;;;4.61;2.93;;;;;;;17.95;48.26;101671.16;;;;-52
2021/02/25 04:01:20;;;;;;;4.61;2.71;;;;;;;17.94;48.24;101674.51;;;;-51
2021/02/25 04:04:20;;;;;;;4.79;2.83;;;;;;;17.93;48.23;101674.50;;;;-51
2021/02/25 04:07:20;;;;;;;4.97;2.68;;;;;;;17.92;48.28;101674.94;;;;-52
2021/02/25 04:10:20;;;;;;;5.12;2.77;;;;;;;17.92;48.28;101673.97;;;;-52
2021/02/25 04:13:20;;;;;;;3.84;2.64;;;;;;;17.91;48.29;101674.02;;;;-52
2021/02/25 04:16:20;;;;;;;4.07;2.61;;;;;;;17.90;48.26;101671.14;;;;-51
2021/02/25 04:19:20;;;;;;;4.51;2.40;;;;;;;17.90;48.26;101670.88;;;;-52
2021/02/25 04:22:20;;;;;;;4.11;2.65;;;;;;;17.90;48.30;101673.08;;;;-51
2021/02/25 04:25:20;;;;;;;5.46;2.88;;;;;;;17.88;48.27;101675.94;;;;-52
2021/02/25 04:28:20;;;;;;;4.49;2.83;;;;;;;17.88;48.27;101682.75;;;;-54
2021/02/25 04:31:20;;;;;;;5.05;2.77;;;;;;;17.87;48.32;101681.03;;;;-54
2021/02/25 04:34:20;;;;;;;3.17;2.57;;;;;;;17.86;48.27;101679.68;;;;-50
2021/02/25 04:37:20;;;;;;;5.05;2.79;;;;;;;17.85;48.33;101681.63;;;;-50
2021/02/25 04:40:20;;;;;;;4.54;2.86;;;;;;;17.84;48.28;101677.42;;;;-52
2021/02/25 04:43:20;;;;;;;4.90;2.66;;;;;;;17.84;48.30;101672.39;;;;-55
2021/02/25 04:46:20;;;;;;;3.59;2.49;;;;;;;17.83;48.32;101674.00;;;;-50
2021/02/25 04:49:20;;;;;;;4.32;2.67;;;;;;;17.83;48.25;101668.48;;;;-54
2021/02/25 04:52:20;;;;;;;4.72;2.94;;;;;;;17.82;48.26;101670.67;;;;-50
2021/02/25 04:55:20;;;;;;;4.03;2.62;;;;;;;17.81;48.29;101667.42;;;;-52
2021/02/25 04:58:20;;;;;;;4.61;3.03;;;;;;;17.81;48.23;101668.87;;;;-52
2021/02/25 05:01:20;;;;;;;4.16;2.75;;;;;;;17.80;48.28;101674.34;;;;-52
2021/02/25 05:04:20;;;;;;;6.05;2.82;;;;;;;17.79;48.25;101668.09;;;;-54
2021/02/25 05:07:20;;;;;;;5.90;2.73;;;;;;;17.78;48.26;101663.50;;;;-54
2021/02/25 05:10:21;;;;;;;5.14;2.87;;;;;;;17.77;48.27;101661.94;;;;-50
2021/02/25 05:13:20;;;;;;;4.85;2.90;;;;;;;17.76;48.33;101664.08;;;;-52
2021/02/25 05:16:20;;;;;;;5.74;2.71;;;;;;;17.76;48.34;101685.56;;;;-52
2021/02/25 05:19:20;;;;;;;5.45;2.89;;;;;;;17.76;48.49;101659.78;;;;-57
2021/02/25 05:22:20;;;;;;;4.14;2.66;;;;;;;17.76;48.54;101660.91;;;;-54
2021/02/25 05:25:20;;;;;;;5.20;2.88;;;;;;;17.76;48.71;101659.61;;;;-58
2021/02/25 05:28:20;;;;;;;5.81;3.25;;;;;;;17.76;48.77;101657.09;;;;-48
2021/02/25 05:31:20;;;;;;;5.87;3.13;;;;;;;17.76;48.80;101651.11;;;;-47
2021/02/25 05:34:20;;;;;;;6.79;3.13;;;;;;;17.75;48.87;101648.91;;;;-48
2021/02/25 05:37:20;;;;;;;5.82;3.13;;;;;;;17.76;48.98;101648.14;;;;-59
2021/02/25 05:40:20;;;;;;;5.99;3.14;;;;;;;17.76;49.02;101650.94;;;;-49
2021/02/25 05:43:20;;;;;;;9.43;3.61;;;;;;;17.73;48.66;101656.78;;;;-58
2021/02/25 05:46:20;;;;;;;11.03;4.79;;;;;;;17.63;48.24;101659.03;;;;-58
2021/02/25 05:49:20;;;;;;;15.33;5.08;;;;;;;17.57;48.11;101658.52;;;;-58
2021/02/25 05:52:20;;;;;;;16.55;5.59;;;;;;;17.53;48.07;101663.72;;;;-59
2021/02/25 05:55:20;;;;;;;15.51;5.27;;;;;;;17.47;47.92;101667.20;;;;-58
2021/02/25 05:58:20;;;;;;;16.59;5.71;;;;;;;17.41;47.77;101672.25;;;;-59
2021/02/25 06:01:20;;;;;;;21.49;5.82;;;;;;;17.35;47.63;101671.41;;;;-58
2021/02/25 06:04:20;;;;;;;21.89;6.43;;;;;;;17.32;47.57;101672.09;;;;-57
2021/02/25 06:07:20;;;;;;;18.23;6.24;;;;;;;17.31;47.51;101679.52;;;;-57
2021/02/25 06:10:20;;;;;;;21.56;6.73;;;;;;;17.26;47.51;101682.97;;;;-57
2021/02/25 06:13:20;;;;;;;18.21;6.51;;;;;;;17.31;47.71;101683.78;;;;-53
2021/02/25 06:16:20;;;;;;;21.39;6.48;;;;;;;17.34;47.85;101683.90;;;;-52
2021/02/25 06:19:20;;;;;;;18.53;6.03;;;;;;;17.37;47.83;101687.34;;;;-52
2021/02/25 06:22:20;;;;;;;17.27;6.12;;;;;;;17.40;47.77;101688.89;;;;-55
2021/02/25 06:25:20;;;;;;;15.87;5.71;;;;;;;17.41;47.76;101682.84;;;;-52
2021/02/25 06:28:20;;;;;;;15.17;5.38;;;;;;;17.41;47.82;101680.73;;;;-56
2021/02/25 06:31:20;;;;;;;13.38;5.41;;;;;;;17.42;47.82;101680.69;;;;-58
2021/02/25 06:34:20;;;;;;;14.16;5.74;;;;;;;17.44;47.93;101683.12;;;;-58
2021/02/25 06:37:20;;;;;;;16.40;5.47;;;;;;;17.43;47.95;101683.27;;;;-56
2021/02/25 06:40:20;;;;;;;14.87;5.57;;;;;;;17.45;47.96;101687.63;;;;-51
2021/02/25 06:43:20;;;;;;;14.55;5.31;;;;;;;17.45;47.93;101695.17;;;;-51
2021/02/25 06:46:20;;;;;;;15.49;4.87;;;;;;;17.45;47.94;101690.71;;;;-52
2021/02/25 06:49:20;;;;;;;16.02;5.65;;;;;;;17.46;47.97;101696.80;;;;-52
2021/02/25 06:52:20;;;;;;;12.54;5.03;;;;;;;17.45;47.98;101692.86;;;;-51
2021/02/25 06:55:20;;;;;;;12.67;5.29;;;;;;;17.45;48.00;101693.59;;;;-52
2021/02/25 06:58:20;;;;;;;11.03;4.83;;;;;;;17.45;48.00;101699.39;;;;-51
2021/02/25 07:01:20;;;;;;;11.71;5.04;;;;;;;17.44;48.03;101698.12;;;;-55
2021/02/25 07:04:20;;;;;;;12.15;5.04;;;;;;;17.45;48.01;101698.13;;;;-51
2021/02/25 07:07:20;;;;;;;9.28;4.77;;;;;;;17.44;48.04;101700.15;;;;-51
2021/02/25 07:10:20;;;;;;;10.47;4.73;;;;;;;17.44;48.09;101697.70;;;;-51
2021/02/25 07:13:20;;;;;;;10.63;4.79;;;;;;;17.44;48.01;101702.01;;;;-56
2021/02/25 07:16:20;;;;;;;10.63;4.79;;;;;;;17.44;48.04;101695.92;;;;-55
2021/02/25 07:19:20;;;;;;;8.49;4.55;;;;;;;17.43;48.06;101705.64;;;;-56
2021/02/25 07:22:20;;;;;;;11.51;4.71;;;;;;;17.43;48.11;101706.12;;;;-55
2021/02/25 07:27:20;;;;;;;12.90;4.61;;;;;;;17.43;48.04;101705.44;;;;-58
2021/02/25 07:30:20;;;;;;;11.90;4.50;;;;;;;17.43;48.07;101709.65;;;;-58
2021/02/25 07:33:20;;;;;;;9.13;4.52;;;;;;;17.43;48.08;101708.84;;;;-58
2021/02/25 07:36:20;;;;;;;12.17;4.51;;;;;;;17.42;48.06;101711.75;;;;-57
2021/02/25 07:39:20;;;;;;;10.67;4.54;;;;;;;17.42;48.12;101714.83;;;;-57
2021/02/25 07:42:20;;;;;;;9.63;4.25;;;;;;;17.42;48.12;101715.54;;;;-58
2021/02/25 07:45:20;;;;;;;8.45;4.15;;;;;;;17.42;48.10;101717.26;;;;-51
2021/02/25 07:48:20;;;;;;;8.54;4.15;;;;;;;17.42;48.08;101715.64;;;;-51
2021/02/25 07:51:20;;;;;;;9.99;4.59;;;;;;;17.42;48.11;101716.52;;;;-51
2021/02/25 07:54:21;;;;;;;8.69;4.32;;;;;;;17.42;48.11;101714.98;;;;-51
2021/02/25 07:57:20;;;;;;;9.85;4.38;;;;;;;17.42;48.11;101715.05;;;;-55
2021/02/25 08:00:20;;;;;;;9.05;4.19;;;;;;;17.42;48.12;101714.73;;;;-58
2021/02/25 08:03:20;;;;;;;8.37;4.29;;;;;;;17.40;48.16;101713.95;;;;-58
2021/02/25 08:06:20;;;;;;;7.45;3.91;;;;;;;17.40;48.13;101720.91;;;;-56
2021/02/25 08:09:20;;;;;;;7.25;3.86;;;;;;;17.40;48.14;101722.77;;;;-55
2021/02/25 08:12:20;;;;;;;10.06;4.15;;;;;;;17.40;48.08;101724.63;;;;-55
2021/02/25 08:15:20;;;;;;;9.35;4.11;;;;;;;17.40;48.15;101719.93;;;;-57
2021/02/25 08:18:20;;;;;;;7.22;3.84;;;;;;;17.40;48.08;101723.02;;;;-56
2021/02/25 08:21:20;;;;;;;7.85;4.19;;;;;;;17.39;48.08;101720.16;;;;-56
2021/02/25 08:24:22;;;;;;;6.56;3.89;;;;;;;17.39;48.07;101717.73;;;;-55
2021/02/25 08:27:20;;;;;;;7.27;3.99;;;;;;;17.39;48.15;101714.53;;;;-58
2021/02/25 08:30:20;;;;;;;7.88;4.04;;;;;;;17.38;48.14;101717.36;;;;-58
2021/02/25 08:33:20;;;;;;;8.38;3.78;;;;;;;17.38;48.13;101717.03;;;;-58
2021/02/25 08:36:20;;;;;;;8.71;4.05;;;;;;;17.37;48.06;101715.15;;;;-58
2021/02/25 08:39:20;;;;;;;8.02;3.92;;;;;;;17.38;48.15;101713.70;;;;-58
2021/02/25 08:42:20;;;;;;;8.31;4.11;;;;;;;17.38;48.19;101719.53;;;;-58
2021/02/25 08:45:20;;;;;;;6.71;3.75;;;;;;;17.37;48.13;101718.16;;;;-58
2021/02/25 08:48:20;;;;;;;7.48;3.64;;;;;;;17.38;48.15;101715.80;;;;-52
2021/02/25 08:51:20;;;;;;;7.39;3.74;;;;;;;17.38;48.14;101720.34;;;;-52
2021/02/25 08:54:20;;;;;;;8.21;3.77;;;;;;;17.39;48.31;101718.70;;;;-52
2021/02/25 08:57:20;;;;;;;6.69;3.49;;;;;;;17.41;48.98;101714.44;;;;-53
2021/02/25 09:00:20;;;;;;;8.12;3.58;;;;;;;17.45;49.04;101716.12;;;;-59
2021/02/25 09:03:20;;;;;;;9.38;3.60;;;;;;;17.50;49.29;101716.23;;;;-55
2021/02/25 09:06:20;;;;;;;7.56;3.71;;;;;;;17.55;50.00;101714.38;;;;-53
2021/02/25 09:09:20;;;;;;;6.79;3.49;;;;;;;17.63;49.95;101707.44;;;;-52
2021/02/25 09:12:20;;;;;;;8.79;3.67;;;;;;;17.70;49.86;101717.83;;;;-54
2021/02/25 09:15:20;;;;;;;6.63;3.67;;;;;;;17.78;49.92;101721.38;;;;-53
2021/02/25 09:18:20;;;;;;;7.78;3.81;;;;;;;17.86;49.91;101722.34;;;;-60
2021/02/25 09:21:20;;;;;;;5.51;3.49;;;;;;;17.92;50.03;101720.52;;;;-55
2021/02/25 09:24:20;;;;;;;6.85;3.50;;;;;;;17.99;49.84;101720.56;;;;-60
2021/02/25 09:27:20;;;;;;;6.41;3.54;;;;;;;18.04;49.70;101724.41;;;;-59
2021/02/25 09:30:20;;;;;;;5.71;3.29;;;;;;;18.10;49.26;101721.84;;;;-54
2021/02/25 09:33:20;;;;;;;8.10;3.35;;;;;;;18.16;49.22;101722.77;;;;-52
2021/02/25 09:36:20;;;;;;;7.35;3.75;;;;;;;18.20;49.08;101717.63;;;;-51
2021/02/25 09:39:20;;;;;;;6.40;3.58;;;;;;;18.22;48.87;101718.63;;;;-51
2021/02/25 09:42:20;;;;;;;6.27;3.33;;;;;;;18.24;48.70;101720.22;;;;-50
2021/02/25 09:45:20;;;;;;;6.03;3.38;;;;;;;18.27;48.74;101718.80;;;;-47
2021/02/25 09:48:20;;;;;;;6.45;3.39;;;;;;;18.31;49.12;101720.39;;;;-51
2021/02/25 09:51:20;;;;;;;8.40;3.35;;;;;;;18.36;49.09;101718.74;;;;-52
2021/02/25 09:54:20;;;;;;;7.85;3.51;;;;;;;18.37;49.07;101714.16;;;;-57
2021/02/25 09:57:20;;;;;;;10.39;3.88;;;;;;;18.41;49.18;101714.70;;;;-52
2021/02/25 10:00:20;;;;;;;9.57;3.78;;;;;;;18.43;49.09;101715.13;;;;-49
2021/02/25 10:03:20;;;;;;;8.75;3.41;;;;;;;18.46;49.08;101714.44;;;;-57
2021/02/25 10:06:20;;;;;;;10.32;3.58;;;;;;;18.53;48.96;101713.38;;;;-55
2021/02/25 10:09:20;;;;;;;10.02;3.58;;;;;;;18.56;48.72;101715.72;;;;-56
2021/02/25 10:12:20;;;;;;;8.86;3.65;;;;;;;18.57;48.54;101718.33;;;;-50
2021/02/25 10:15:20;;;;;;;6.80;3.19;;;;;;;18.59;48.58;101718.06;;;;-51
2021/02/25 10:18:20;;;;;;;6.61;3.34;;;;;;;18.61;48.28;101713.66;;;;-54
2021/02/25 10:21:20;;;;;;;8.26;3.31;;;;;;;18.64;48.39;101714.58;;;;-54
2021/02/25 10:24:20;;;;;;;7.25;3.28;;;;;;;18.66;48.31;101712.61;;;;-55
2021/02/25 10:27:20;;;;;;;7.41;3.48;;;;;;;18.67;48.22;101706.45;;;;-55
2021/02/25 10:30:20;;;;;;;6.25;3.24;;;;;;;18.69;48.13;101703.34;;;;-53
2021/02/25 10:33:20;;;;;;;6.10;3.41;;;;;;;18.71;48.11;101697.16;;;;-49
2021/02/25 10:36:20;;;;;;;6.57;3.31;;;;;;;18.71;48.05;101696.74;;;;-53
2021/02/25 10:39:20;;;;;;;6.89;3.71;;;;;;;18.74;48.18;101696.53;;;;-49
2021/02/25 10:42:20;;;;;;;9.20;4.03;;;;;;;18.74;48.29;101697.02;;;;-54
2021/02/25 10:45:20;;;;;;;12.51;4.78;;;;;;;18.75;48.47;101690.95;;;;-66
2021/02/25 10:48:20;;;;;;;15.99;6.37;;;;;;;18.77;48.49;101692.46;;;;-52
2021/02/25 10:51:20;;;;;;;13.65;6.29;;;;;;;18.76;48.37;101685.46;;;;-53
2021/02/25 10:54:20;;;;;;;12.10;6.46;;;;;;;18.75;48.37;101688.59;;;;-51
2021/02/25 10:57:19;;;;;;;12.35;6.13;;;;;;;18.75;48.40;101684.12;;;;-55
2021/02/25 11:00:20;;;;;;;14.32;6.42;;;;;;;18.74;48.25;101680.86;;;;-54
2021/02/25 11:03:20;;;;;;;11.99;5.74;;;;;;;18.81;48.67;101675.23;;;;-48
2021/02/25 11:06:20;;;;;;;11.08;5.63;;;;;;;18.87;48.81;101668.66;;;;-45
2021/02/25 11:09:20;;;;;;;12.55;5.87;;;;;;;18.93;48.69;101665.26;;;;-54
2021/02/25 11:12:20;;;;;;;10.92;5.31;;;;;;;18.97;48.74;101664.23;;;;-51
2021/02/25 11:15:20;;;;;;;11.51;5.64;;;;;;;18.98;48.42;101651.73;;;;-57
2021/02/25 11:18:20;;;;;;;9.46;5.25;;;;;;;18.98;48.17;101652.30;;;;-60
2021/02/25 11:21:20;;;;;;;8.97;5.28;;;;;;;18.97;47.98;101646.94;;;;-60
2021/02/25 11:24:20;;;;;;;11.73;5.35;;;;;;;18.96;47.85;101641.44;;;;-61
2021/02/25 11:27:20;;;;;;;10.17;5.19;;;;;;;18.96;47.87;101640.95;;;;-55
2021/02/25 11:30:20;;;;;;;9.87;5.42;;;;;;;18.96;47.70;101638.11;;;;-55
2021/02/25 11:33:20;;;;;;;8.95;5.08;;;;;;;18.96;47.75;101635.19;;;;-55
2021/02/25 11:36:20;;;;;;;10.14;5.29;;;;;;;18.95;47.61;101634.69;;;;-55
2021/02/25 11:39:20;;;;;;;8.66;4.98;;;;;;;18.95;47.67;101629.08;;;;-60
2021/02/25 11:42:20;;;;;;;9.01;5.15;;;;;;;18.95;47.70;101620.14;;;;-60
2021/02/25 11:45:20;;;;;;;8.79;4.75;;;;;;;18.95;47.69;101619.58;;;;-61
2021/02/25 11:48:20;;;;;;;7.57;4.40;;;;;;;18.95;47.58;101610.97;;;;-61
2021/02/25 11:51:20;;;;;;;13.69;4.84;;;;;;;18.95;47.60;101599.11;;;;-61
2021/02/25 11:54:20;;;;;;;8.60;4.55;;;;;;;18.95;47.49;101596.75;;;;-58
2021/02/25 11:57:20;;;;;;;7.61;4.91;;;;;;;18.96;47.51;101592.86;;;;-57
2021/02/25 12:00:20;;;;;;;7.02;4.47;;;;;;;18.98;47.53;101587.55;;;;-55
2021/02/25 12:03:20;;;;;;;9.03;4.63;;;;;;;18.98;47.44;101586.91;;;;-55
2021/02/25 12:06:20;;;;;;;8.10;4.37;;;;;;;18.98;47.42;101577.73;;;;-55
2021/02/25 12:09:20;;;;;;;6.91;4.39;;;;;;;18.99;47.45;101574.27;;;;-54
2021/02/25 12:12:20;;;;;;;9.15;4.38;;;;;;;18.99;47.39;101575.17;;;;-61
2021/02/25 12:15:20;;;;;;;9.00;4.57;;;;;;;18.99;47.34;101571.52;;;;-56
2021/02/25 12:18:20;;;;;;;6.40;4.39;;;;;;;19.00;47.41;101569.73;;;;-57
2021/02/25 12:21:20;;;;;;;7.84;4.31;;;;;;;19.00;47.27;101569.81;;;;-61
2021/02/25 12:24:20;;;;;;;7.31;4.27;;;;;;;18.99;47.35;101564.61;;;;-61
2021/02/25 12:27:21;;;;;;;8.09;4.52;;;;;;;19.01;47.36;101558.56;;;;-61
2021/02/25 12:30:20;;;;;;;6.99;4.06;;;;;;;19.01;47.36;101552.77;;;;-57
2021/02/25 12:33:20;;;;;;;6.29;4.05;;;;;;;19.01;47.22;101548.73;;;;-61
2021/02/25 12:36:20;;;;;;;6.49;3.90;;;;;;;19.02;47.32;101546.15;;;;-57
2021/02/25 12:39:20;;;;;;;6.95;3.97;;;;;;;19.02;47.23;101540.70;;;;-57
2021/02/25 12:42:20;;;;;;;5.92;3.63;;;;;;;19.01;47.29;101538.58;;;;-59
2021/02/25 12:45:20;;;;;;;7.61;3.84;;;;;;;19.02;47.31;101535.34;;;;-57
2021/02/25 12:48:20;;;;;;;6.86;3.87;;;;;;;19.02;47.20;101526.41;;;;-61
2021/02/25 12:51:20;;;;;;;6.13;3.88;;;;;;;19.03;47.31;101520.19;;;;-61
2021/02/25 12:54:20;;;;;;;7.70;3.61;;;;;;;19.02;47.29;101512.52;;;;-58
2021/02/25 12:57:19;;;;;;;8.33;4.15;;;;;;;19.03;47.24;101514.09;;;;-60
2021/02/25 13:00:21;;;;;;;6.80;4.07;;;;;;;19.02;47.29;101511.22;;;;-61
2021/02/25 13:03:20;;;;;;;7.13;3.77;;;;;;;19.03;47.20;101509.47;;;;-57
2021/02/25 13:06:19;;;;;;;7.01;3.81;;;;;;;19.04;47.20;101505.50;;;;-57
2021/02/25 13:09:20;;;;;;;8.03;4.15;;;;;;;19.05;47.25;101504.81;;;;-58
2021/02/25 13:12:20;;;;;;;6.48;3.79;;;;;;;19.04;47.16;101502.58;;;;-60
2021/02/25 13:15:20;;;;;;;6.32;3.87;;;;;;;19.04;47.24;101493.15;;;;-60
2021/02/25 13:18:20;;;;;;;6.60;3.87;;;;;;;19.05;47.23;101494.00;;;;-59
2021/02/25 13:21:19;;;;;;;9.21;4.17;;;;;;;19.03;47.30;101488.91;;;;-59
2021/02/25 13:24:19;;;;;;;8.08;4.49;;;;;;;19.01;47.36;101490.98;;;;-54
2021/02/25 13:27:21;;;;;;;9.57;4.09;;;;;;;19.00;47.65;101485.49;;;;-56
2021/02/25 13:30:20;;;;;;;7.81;4.19;;;;;;;19.04;47.51;101485.91;;;;-53
2021/02/25 13:33:20;;;;;;;8.33;3.86;;;;;;;19.05;47.44;101484.17;;;;-58
2021/02/25 13:36:20;;;;;;;9.35;4.24;;;;;;;19.05;47.39;101483.93;;;;-55
2021/02/25 13:39:19;;;;;;;10.57;4.23;;;;;;;19.04;47.73;101482.34;;;;-55
2021/02/25 13:42:20;;;;;;;11.29;4.20;;;;;;;19.03;47.85;101480.19;;;;-52
2021/02/25 13:45:20;;;;;;;8.10;3.99;;;;;;;19.02;48.09;101471.00;;;;-53
2021/02/25 13:48:20;;;;;;;9.14;3.75;;;;;;;19.05;47.87;101479.75;;;;-54
2021/02/25 13:51:20;;;;;;;9.08;4.11;;;;;;;19.07;47.83;101477.40;;;;-53
2021/02/25 13:54:19;;;;;;;10.08;3.90;;;;;;;19.08;47.70;101480.98;;;;-55
2021/02/25 13:57:20;;;;;;;6.83;3.83;;;;;;;19.08;47.54;101475.13;;;;-55
2021/02/25 14:00:20;;;;;;;7.77;3.99;;;;;;;19.08;47.46;101471.39;;;;-56
2021/02/25 14:03:21;;;;;;;6.89;3.68;;;;;;;19.11;47.53;101475.10;;;;-55
2021/02/25 14:06:20;;;;;;;10.67;3.53;;;;;;;19.10;47.44;101478.83;;;;-55
2021/02/25 14:09:20;;;;;;;7.30;3.61;;;;;;;19.10;47.42;101475.83;;;;-55
2021/02/25 14:12:19;;;;;;;6.69;3.57;;;;;;;19.12;47.43;101476.77;;;;-55
2021/02/25 14:15:20;;;;;;;8.08;3.64;;;;;;;19.10;47.35;101475.34;;;;-55
2021/02/25 14:18:19;;;;;;;5.95;3.59;;;;;;;19.10;47.29;101477.45;;;;-61
2021/02/25 14:21:20;;;;;;;7.28;3.67;;;;;;;19.12;47.41;101481.97;;;;-62
2021/02/25 14:24:20;;;;;;;7.37;3.79;;;;;;;19.12;47.37;101477.34;;;;-61
2021/02/25 14:27:19;;;;;;;6.52;3.48;;;;;;;19.12;47.35;101475.06;;;;-55
2021/02/25 14:30:20;;;;;;;8.20;3.69;;;;;;;19.12;47.26;101472.22;;;;-55
2021/02/25 14:33:20;;;;;;;6.09;3.49;;;;;;;19.13;47.28;101471.82;;;;-55
2021/02/25 14:36:20;;;;;;;6.51;3.53;;;;;;;19.13;47.23;101468.00;;;;-55
2021/02/25 14:39:20;;;;;;;6.53;3.49;;;;;;;19.13;47.26;101462.16;;;;-55
2021/02/25 14:42:19;;;;;;;6.44;3.49;;;;;;;19.13;47.21;101461.02;;;;-57
2021/02/25 14:45:20;;;;;;;6.15;3.36;;;;;;;19.14;47.18;101459.75;;;;-55
2021/02/25 14:48:20;;;;;;;5.77;3.26;;;;;;;19.13;47.12;101454.68;;;;-61
2021/02/25 14:51:19;;;;;;;8.59;3.47;;;;;;;19.15;47.16;101459.11;;;;-55
2021/02/25 14:54:20;;;;;;;6.99;3.89;;;;;;;19.14;47.54;101458.86;;;;-52
2021/02/25 14:57:19;;;;;;;12.37;4.77;;;;;;;19.13;47.86;101455.16;;;;-49
2021/02/25 15:00:20;;;;;;;8.62;4.48;;;;;;;19.15;47.79;101448.88;;;;-57
2021/02/25 15:03:20;;;;;;;12.65;4.25;;;;;;;19.16;47.56;101447.45;;;;-54
2021/02/25 15:06:20;;;;;;;11.77;4.27;;;;;;;19.16;47.59;101446.48;;;;-58
2021/02/25 15:09:20;;;;;;;9.01;3.91;;;;;;;19.18;47.51;101445.88;;;;-59
2021/02/25 15:12:20;;;;;;;9.41;4.02;;;;;;;19.18;47.48;101446.53;;;;-58
2021/02/25 15:15:19;;;;;;;9.29;4.21;;;;;;;19.20;47.51;101441.05;;;;-59
2021/02/25 15:18:20;;;;;;;13.07;4.42;;;;;;;19.23;48.10;101436.14;;;;-60
2021/02/25 15:21:19;;;;;;;12.79;4.13;;;;;;;19.26;47.78;101433.27;;;;-62
2021/02/25 15:24:20;;;;;;;11.39;4.10;;;;;;;19.23;47.50;101429.89;;;;-62
2021/02/25 15:27:20;;;;;;;10.79;4.35;;;;;;;19.21;47.45;101429.03;;;;-61
2021/02/25 15:30:19;;;;;;;10.63;4.16;;;;;;;19.20;47.44;101428.38;;;;-61
2021/02/25 15:33:19;;;;;;;12.20;4.16;;;;;;;19.25;47.89;101428.72;;;;-52
2021/02/25 15:36:20;;;;;;;10.05;4.10;;;;;;;19.26;47.61;101427.75;;;;-52
2021/02/25 15:39:19;;;;;;;10.13;3.91;;;;;;;19.27;47.45;101431.85;;;;-52
2021/02/25 15:42:20;;;;;;;7.69;3.87;;;;;;;19.27;47.45;101432.58;;;;-59
2021/02/25 15:45:20;;;;;;;9.87;4.09;;;;;;;19.28;47.46;101429.91;;;;-51
2021/02/25 15:48:19;;;;;;;10.29;4.12;;;;;;;19.33;48.13;101434.27;;;;-53
2021/02/25 15:51:20;;;;;;;10.46;4.03;;;;;;;19.37;48.33;101427.77;;;;-52
2021/02/25 15:54:19;;;;;;;8.70;3.94;;;;;;;19.40;48.36;101431.64;;;;-51
2021/02/25 15:57:20;;;;;;;10.03;3.86;;;;;;;19.45;48.55;101430.88;;;;-55
2021/02/25 16:00:20;;;;;;;8.16;3.95;;;;;;;19.47;48.52;101428.16;;;;-50
2021/02/25 16:03:19;;;;;;;8.01;3.67;;;;;;;19.50;48.58;101431.06;;;;-51
2021/02/25 16:06:20;;;;;;;7.09;3.90;;;;;;;19.53;48.52;101428.42;;;;-61
2021/02/25 16:09:20;;;;;;;9.01;3.33;;;;;;;19.55;48.63;101430.70;;;;-48
2021/02/25 16:12:19;;;;;;;9.72;4.20;;;;;;;19.56;48.51;101428.75;;;;-48
2021/02/25 16:15:20;;;;;;;8.19;3.45;;;;;;;19.59;48.52;101432.00;;;;-47
2021/02/25 16:18:19;;;;;;;9.40;3.65;;;;;;;19.61;48.65;101434.53;;;;-57
2021/02/25 16:21:19;;;;;;;6.17;3.26;;;;;;;19.62;48.62;101438.55;;;;-52
2021/02/25 16:24:20;;;;;;;6.87;3.52;;;;;;;19.62;48.51;101436.69;;;;-59
2021/02/25 16:27:19;;;;;;;7.03;3.31;;;;;;;19.63;48.57;101442.09;;;;-54
2021/02/25 16:30:22;;;;;;;7.33;3.51;;;;;;;19.65;48.51;101444.83;;;;-56
2021/02/25 16:33:19;;;;;;;6.53;3.25;;;;;;;19.67;48.47;101444.13;;;;-58
2021/02/25 16:36:19;;;;;;;8.39;3.69;;;;;;;19.67;48.31;101444.78;;;;-60
2021/02/25 16:39:20;;;;;;;8.71;3.62;;;;;;;19.65;48.06;101449.12;;;;-52
2021/02/25 16:42:19;;;;;;;7.41;3.37;;;;;;;19.63;47.81;101450.23;;;;-59